Time;durP1;ratioP1;P1;durP2;ratioP2;P2;SDS_P1;SDS_P2;PMS_P1;PMS_P2;Temp;Humidity;BMP_temperature;BMP_pressure;BME280_temperature;BME280_humidity;BME280_pressure;Samples;Min_cycle;Max_cycle;Signal;HPM_P1;HPM_P2
2023/09/01 00:00:27;;;;;;;;;;;;;;;;;;5050079;28;20323;-62
2023/09/01 00:02:53;;;;;;;;;;;;;;;;;;5034052;28;19927;-62
2023/09/01 00:05:19;;;;;;;;;;;;;;;;;;5032807;28;20011;-62
2023/09/01 00:07:44;;;;;;;;;;;;;;;;;;5050448;28;19921;-62
2023/09/01 00:10:10;;;;;;;;;;;;;;;;;;5049566;28;19929;-62
2023/09/01 00:12:36;;;;;;;;;;;;;;;;;;5050688;28;19921;-62
2023/09/01 00:15:03;;;;;;;;;;;;;;;;;;5051428;28;19974;-62
2023/09/01 00:17:29;;;;;;;;;;;;;;;;;;5050157;28;19924;-61
2023/09/01 00:19:54;;;;;;;;;;;;;;;;;;5050373;28;19924;-62
2023/09/01 00:22:20;;;;;;;;;;;;;;;;;;5049892;28;19920;-62
2023/09/01 00:24:46;;;;;;;;;;;;;;;;;;5033430;28;19999;-62
2023/09/01 00:27:12;;;;;;;;;;;;;;;;;;5048570;28;19925;-62
2023/09/01 00:29:38;;;;;;;;;;;;;;;;;;5050860;28;20024;-62
2023/09/01 00:32:04;;;;;;;;;;;;;;;;;;5050244;28;20350;-62
2023/09/01 00:34:30;;;;;;;;;;;;;;;;;;5051416;28;19924;-62
2023/09/01 00:36:56;;;;;;;;;;;;;;;;;;5031951;28;20496;-62
2023/09/01 00:39:21;;;;;;;;;;;;;;;;;;5052219;28;19928;-62
2023/09/01 00:41:47;;;;;;;;;;;;;;;;;;5049011;28;19994;-62
2023/09/01 00:44:14;;;;;;;;;;;;;;;;;;5050333;28;19921;-62
2023/09/01 00:46:43;;;;;;;;;;;;;;;;;;5031332;28;19924;-62
2023/09/01 00:49:09;;;;;;;;;;;;;;;;;;5049181;28;20314;-62
2023/09/01 00:51:35;;;;;;;;;;;;;;;;;;5048912;28;20358;-62
2023/09/01 00:54:02;;;;;;;;;;;;;;;;;;5050009;28;20055;-62
2023/09/01 00:56:28;;;;;;;;;;;;;;;;;;5047434;28;19925;-62
2023/09/01 00:58:54;;;;;;;;;;;;;;;;;;5050044;28;19921;-62
2023/09/01 01:01:20;;;;;;;;;;;;;;;;;;5048332;28;19947;-62
2023/09/01 01:03:47;;;;;;;;;;;;;;;;;;5049602;28;20058;-62
2023/09/01 01:06:13;;;;;;;;;;;;;;;;;;5048698;28;19929;-62
2023/09/01 01:08:39;;;;;;;;;;;;;;;;;;5031752;28;20263;-62
2023/09/01 01:11:06;;;;;;;;;;;;;;;;;;5051244;28;20362;-62
2023/09/01 01:13:34;;;;;;;;;;;;;;;;;;5048729;28;20306;-62
2023/09/01 01:16:00;;;;;;;;;;;;;;;;;;5049409;28;19928;-62
2023/09/01 01:18:26;;;;;;;;;;;;;;;;;;5048928;28;19921;-62
2023/09/01 01:20:52;;;;;;;;;;;;;;;;;;5051839;28;20620;-62
2023/09/01 01:23:19;;;;;;;;;;;;;;;;;;5049705;28;20007;-62
2023/09/01 01:25:46;;;;;;;;;;;;;;;;;;5051334;28;19929;-62
2023/09/01 01:28:12;;;;;;;;;;;;;;;;;;5029898;28;20374;-62
2023/09/01 01:30:37;;;;;;;;;;;;;;;;;;5031769;28;19920;-62
2023/09/01 01:33:03;;;;;;;;;;;;;;;;;;5048238;28;20381;-62
2023/09/01 01:35:29;;;;;;;;;;;;;;;;;;5050240;28;20409;-62
2023/09/01 01:37:55;;;;;;;;;;;;;;;;;;5044450;28;19926;-62
2023/09/01 01:40:21;;;;;;;;;;;;;;;;;;5032120;28;19925;-62
2023/09/01 01:42:48;;;;;;;;;;;;;;;;;;5047863;28;20012;-62
2023/09/01 01:45:14;;;;;;;;;;;;;;;;;;5049793;28;20020;-62
2023/09/01 01:47:40;;;;;;;;;;;;;;;;;;5049058;28;20003;-62
2023/09/01 01:50:06;;;;;;;;;;;;;;;;;;5047095;28;19929;-62
2023/09/01 01:52:32;;;;;;;;;;;;;;;;;;5049066;28;19929;-62
2023/09/01 01:54:58;;;;;;;;;;;;;;;;;;5047759;28;19921;-62
2023/09/01 01:57:24;;;;;;;;;;;;;;;;;;5050526;28;19990;-62
2023/09/01 01:59:50;;;;;;;;;;;;;;;;;;5048210;28;19920;-62
2023/09/01 02:02:15;;;;;;;;;;;;;;;;;;5047085;28;19978;-62
2023/09/01 02:04:42;;;;;;;;;;;;;;;;;;5049260;28;19979;-62
2023/09/01 02:07:08;;;;;;;;;;;;;;;;;;5049009;28;19921;-62
2023/09/01 02:09:33;;;;;;;;;;;;;;;;;;5032110;28;20003;-62
2023/09/01 02:11:59;;;;;;;;;;;;;;;;;;5053943;28;19924;-62
2023/09/01 02:14:25;;;;;;;;;;;;;;;;;;5053712;28;19952;-62
2023/09/01 02:16:51;;;;;;;;;;;;;;;;;;5052157;28;19924;-62
2023/09/01 02:19:17;;;;;;;;;;;;;;;;;;5035774;28;19928;-62
2023/09/01 02:21:45;;;;;;;;;;;;;;;;;;5052561;28;19946;-62
2023/09/01 02:24:11;;;;;;;;;;;;;;;;;;5052166;28;19999;-62
2023/09/01 02:26:36;;;;;;;;;;;;;;;;;;5052943;28;20012;-62
2023/09/01 02:29:05;;;;;;;;;;;;;;;;;;5020111;28;19933;-62
2023/09/01 02:31:30;;;;;;;;;;;;;;;;;;5051134;28;19952;-62
2023/09/01 02:33:57;;;;;;;;;;;;;;;;;;5034310;28;21434;-62
2023/09/01 02:36:25;;;;;;;;;;;;;;;;;;5054490;28;19920;-62
2023/09/01 02:38:51;;;;;;;;;;;;;;;;;;5050850;28;19951;-62
2023/09/01 02:41:17;;;;;;;;;;;;;;;;;;5052286;28;20382;-62
2023/09/01 02:43:44;;;;;;;;;;;;;;;;;;5049832;28;20292;-62
2023/09/01 02:46:10;;;;;;;;;;;;;;;;;;5033317;28;19925;-62
2023/09/01 02:48:36;;;;;;;;;;;;;;;;;;5051555;28;20377;-62
2023/09/01 02:51:04;;;;;;;;;;;;;;;;;;5053237;28;20017;-62
2023/09/01 02:53:30;;;;;;;;;;;;;;;;;;5032353;28;19921;-62
2023/09/01 02:55:56;;;;;;;;;;;;;;;;;;5034507;28;19970;-62
2023/09/01 02:58:22;;;;;;;;;;;;;;;;;;5051434;28;20562;-62
2023/09/01 03:00:48;;;;;;;;;;;;;;;;;;5052788;28;19928;-62
2023/09/01 03:03:14;;;;;;;;;;;;;;;;;;5049280;28;20287;-62
2023/09/01 03:05:40;;;;;;;;;;;;;;;;;;5051868;28;19932;-62
2023/09/01 03:08:06;;;;;;;;;;;;;;;;;;5032845;28;20571;-62
2023/09/01 03:10:32;;;;;;;;;;;;;;;;;;5052484;28;19933;-62
2023/09/01 03:12:58;;;;;;;;;;;;;;;;;;5017117;28;19947;-61
2023/09/01 03:15:24;;;;;;;;;;;;;;;;;;5016730;28;19929;-62
2023/09/01 03:17:49;;;;;;;;;;;;;;;;;;5032851;28;20389;-62
2023/09/01 03:20:15;;;;;;;;;;;;;;;;;;5052807;28;20008;-62
2023/09/01 03:22:41;;;;;;;;;;;;;;;;;;5031650;28;19925;-62
2023/09/01 03:25:10;;;;;;;;;;;;;;;;;;5052286;28;19971;-62
2023/09/01 03:27:36;;;;;;;;;;;;;;;;;;5050363;28;19925;-62
2023/09/01 03:30:02;;;;;;;;;;;;;;;;;;5050367;28;19928;-62
2023/09/01 03:32:28;;;;;;;;;;;;;;;;;;5050896;28;19975;-62
2023/09/01 03:34:55;;;;;;;;;;;;;;;;;;5051038;28;19960;-62
2023/09/01 03:37:22;;;;;;;;;;;;;;;;;;5050630;28;19920;-62
2023/09/01 03:39:48;;;;;;;;;;;;;;;;;;5051121;28;20004;-62
2023/09/01 03:42:14;;;;;;;;;;;;;;;;;;5048804;28;20004;-62
2023/09/01 03:44:39;;;;;;;;;;;;;;;;;;5051966;28;19963;-62
2023/09/01 03:47:05;;;;;;;;;;;;;;;;;;5049846;28;19940;-62
2023/09/01 03:49:31;;;;;;;;;;;;;;;;;;5047812;28;20306;-62
2023/09/01 03:51:57;;;;;;;;;;;;;;;;;;5051472;28;20341;-62
2023/09/01 03:54:23;;;;;;;;;;;;;;;;;;5051191;28;20359;-63
2023/09/01 03:56:50;;;;;;;;;;;;;;;;;;5049435;28;20012;-60
2023/09/01 03:59:15;;;;;;;;;;;;;;;;;;5050832;28;19928;-60
2023/09/01 04:01:44;;;;;;;;;;;;;;;;;;5051744;28;19924;-63
2023/09/01 04:04:10;;;;;;;;;;;;;;;;;;5050038;28;20346;-63
2023/09/01 04:06:36;;;;;;;;;;;;;;;;;;5051891;28;19925;-63
2023/09/01 04:09:03;;;;;;;;;;;;;;;;;;5049050;28;19990;-63
2023/09/01 04:11:29;;;;;;;;;;;;;;;;;;5052000;28;19982;-63
2023/09/01 04:13:55;;;;;;;;;;;;;;;;;;5015456;28;19951;-63
2023/09/01 04:16:21;;;;;;;;;;;;;;;;;;5049833;28;19947;-63
2023/09/01 04:18:47;;;;;;;;;;;;;;;;;;5049877;28;20389;-63
2023/09/01 04:21:13;;;;;;;;;;;;;;;;;;5033394;28;19961;-63
2023/09/01 04:23:40;;;;;;;;;;;;;;;;;;5032050;28;20318;-60
2023/09/01 04:26:06;;;;;;;;;;;;;;;;;;5051621;28;19966;-60
2023/09/01 04:28:32;;;;;;;;;;;;;;;;;;5030019;28;19928;-60
2023/09/01 04:30:59;;;;;;;;;;;;;;;;;;5051908;28;19924;-61
2023/09/01 04:33:26;;;;;;;;;;;;;;;;;;5050821;28;19924;-61
2023/09/01 04:35:52;;;;;;;;;;;;;;;;;;5052273;28;19944;-61
2023/09/01 04:38:17;;;;;;;;;;;;;;;;;;5050472;28;20744;-61
2023/09/01 04:40:43;;;;;;;;;;;;;;;;;;5052240;28;20015;-61
2023/09/01 04:43:09;;;;;;;;;;;;;;;;;;5050234;28;20270;-61
2023/09/01 04:45:35;;;;;;;;;;;;;;;;;;5051389;28;19967;-61
2023/09/01 04:48:01;;;;;;;;;;;;;;;;;;5049937;28;19946;-62
2023/09/01 04:50:27;;;;;;;;;;;;;;;;;;5051296;28;20008;-61
2023/09/01 04:52:54;;;;;;;;;;;;;;;;;;5050033;28;19927;-61
2023/09/01 04:55:19;;;;;;;;;;;;;;;;;;5051342;28;19921;-61
2023/09/01 04:57:45;;;;;;;;;;;;;;;;;;5051422;28;20366;-61
2023/09/01 05:00:15;;;;;;;;;;;;;;;;;;5050566;28;19929;-61
2023/09/01 05:02:41;;;;;;;;;;;;;;;;;;5048166;28;19978;-61
2023/09/01 05:05:07;;;;;;;;;;;;;;;;;;5051200;28;19924;-61
2023/09/01 05:07:33;;;;;;;;;;;;;;;;;;5043642;28;19928;-61
2023/09/01 05:09:59;;;;;;;;;;;;;;;;;;5051768;28;19925;-61
2023/09/01 05:12:25;;;;;;;;;;;;;;;;;;5049713;28;20007;-62
2023/09/01 05:14:51;;;;;;;;;;;;;;;;;;5033772;28;20429;-62
2023/09/01 05:17:16;;;;;;;;;;;;;;;;;;5032007;28;19932;-62
2023/09/01 05:19:42;;;;;;;;;;;;;;;;;;5050532;28;20389;-62
2023/09/01 05:22:08;;;;;;;;;;;;;;;;;;5049719;28;19921;-62
2023/09/01 05:24:34;;;;;;;;;;;;;;;;;;5052721;28;20382;-62
2023/09/01 05:27:00;;;;;;;;;;;;;;;;;;5049255;28;19921;-62
2023/09/01 05:29:27;;;;;;;;;;;;;;;;;;5049361;28;20562;-62
2023/09/01 05:31:53;;;;;;;;;;;;;;;;;;5049695;28;20566;-62
2023/09/01 05:34:19;;;;;;;;;;;;;;;;;;5033506;28;19989;-62
2023/09/01 05:36:45;;;;;;;;;;;;;;;;;;5049095;28;19935;-62
2023/09/01 05:39:11;;;;;;;;;;;;;;;;;;5051614;28;20637;-62
2023/09/01 05:41:36;;;;;;;;;;;;;;;;;;5031768;28;19931;-62
2023/09/01 05:44:02;;;;;;;;;;;;;;;;;;5052147;28;20436;-62
2023/09/01 05:46:28;;;;;;;;;;;;;;;;;;5053255;28;20008;-62
2023/09/01 05:48:54;;;;;;;;;;;;;;;;;;5053240;28;20390;-62
2023/09/01 05:51:20;;;;;;;;;;;;;;;;;;5035870;28;19924;-63
2023/09/01 05:53:46;;;;;;;;;;;;;;;;;;5052522;28;19921;-63
2023/09/01 05:56:12;;;;;;;;;;;;;;;;;;5051606;28;19925;-62
2023/09/01 05:58:38;;;;;;;;;;;;;;;;;;5050380;28;19999;-62
2023/09/01 06:01:04;;;;;;;;;;;;;;;;;;5050084;28;19979;-62
2023/09/01 06:03:29;;;;;;;;;;;;;;;;;;5024476;28;19947;-63
2023/09/01 06:05:55;;;;;;;;;;;;;;;;;;5049541;28;20343;-63
2023/09/01 06:08:21;;;;;;;;;;;;;;;;;;5055612;28;19929;-63
2023/09/01 06:10:47;;;;;;;;;;;;;;;;;;5050472;28;20282;-63
2023/09/01 06:13:13;;;;;;;;;;;;;;;;;;5047375;28;20389;-63
2023/09/01 06:15:39;;;;;;;;;;;;;;;;;;5051397;28;19921;-63
2023/09/01 06:18:05;;;;;;;;;;;;;;;;;;5032839;28;19928;-63
2023/09/01 06:20:31;;;;;;;;;;;;;;;;;;5034784;28;20008;-63
2023/09/01 06:22:57;;;;;;;;;;;;;;;;;;5051100;28;19967;-60
2023/09/01 06:25:23;;;;;;;;;;;;;;;;;;5035944;28;19921;-63
2023/09/01 06:27:48;;;;;;;;;;;;;;;;;;5054140;28;20011;-63
2023/09/01 06:30:14;;;;;;;;;;;;;;;;;;5050494;28;20382;-62
2023/09/01 06:32:40;;;;;;;;;;;;;;;;;;5051392;28;19960;-61
2023/09/01 06:35:06;;;;;;;;;;;;;;;;;;5052710;28;20450;-61
2023/09/01 06:37:32;;;;;;;;;;;;;;;;;;5048930;28;19974;-61
2023/09/01 06:39:58;;;;;;;;;;;;;;;;;;5051470;28;20362;-62
2023/09/01 06:42:24;;;;;;;;;;;;;;;;;;5051203;28;19930;-62
2023/09/01 06:44:50;;;;;;;;;;;;;;;;;;5051190;28;19928;-62
2023/09/01 06:47:16;;;;;;;;;;;;;;;;;;5051087;28;20450;-61
2023/09/01 06:49:42;;;;;;;;;;;;;;;;;;5053019;28;20487;-62
2023/09/01 06:52:08;;;;;;;;;;;;;;;;;;5051914;28;19927;-62
2023/09/01 06:54:33;;;;;;;;;;;;;;;;;;5048840;28;19921;-61
2023/09/01 06:56:59;;;;;;;;;;;;;;;;;;5019506;28;19921;-61
2023/09/01 06:59:25;;;;;;;;;;;;;;;;;;5048062;28;19963;-61
2023/09/01 07:01:51;;;;;;;;;;;;;;;;;;5043398;28;19924;-62
2023/09/01 07:04:17;;;;;;;;;;;;;;;;;;5051543;28;19999;-61
2023/09/01 07:06:43;;;;;;;;;;;;;;;;;;5052234;28;19925;-61
2023/09/01 07:09:09;;;;;;;;;;;;;;;;;;5035252;28;20035;-62
2023/09/01 07:11:36;;;;;;;;;;;;;;;;;;5052180;28;22452;-62
2023/09/01 07:14:02;;;;;;;;;;;;;;;;;;5049026;28;19925;-62
2023/09/01 07:16:28;;;;;;;;;;;;;;;;;;5049044;28;19943;-61
2023/09/01 07:18:54;;;;;;;;;;;;;;;;;;5048622;28;19920;-61
2023/09/01 07:21:20;;;;;;;;;;;;;;;;;;5049369;28;19925;-61
2023/09/01 07:23:47;;;;;;;;;;;;;;;;;;5050978;28;19972;-61
2023/09/01 07:26:12;;;;;;;;;;;;;;;;;;5047208;28;19952;-61
2023/09/01 07:28:38;;;;;;;;;;;;;;;;;;5047921;28;19960;-61
2023/09/01 07:31:04;;;;;;;;;;;;;;;;;;5032316;28;20285;-61
2023/09/01 07:33:31;;;;;;;;;;;;;;;;;;5047453;28;19925;-61
2023/09/01 07:35:57;;;;;;;;;;;;;;;;;;5053201;28;19920;-61
2023/09/01 07:38:23;;;;;;;;;;;;;;;;;;5053069;28;19925;-61
2023/09/01 07:40:49;;;;;;;;;;;;;;;;;;5033976;28;19959;-62
2023/09/01 07:43:17;;;;;;;;;;;;;;;;;;5047831;28;19921;-62
2023/09/01 07:45:43;;;;;;;;;;;;;;;;;;5049587;28;19924;-62
2023/09/01 07:48:10;;;;;;;;;;;;;;;;;;5049744;28;20351;-62
2023/09/01 07:50:36;;;;;;;;;;;;;;;;;;5052494;28;19925;-62
2023/09/01 07:53:02;;;;;;;;;;;;;;;;;;5051348;28;19925;-62
2023/09/01 07:55:28;;;;;;;;;;;;;;;;;;5049880;28;19925;-61
2023/09/01 07:57:54;;;;;;;;;;;;;;;;;;5048588;28;20373;-62
2023/09/01 08:00:20;;;;;;;;;;;;;;;;;;5049347;28;19960;-62
2023/09/01 08:02:47;;;;;;;;;;;;;;;;;;5052131;28;19997;-62
2023/09/01 08:05:13;;;;;;;;;;;;;;;;;;5034095;28;19920;-62
2023/09/01 08:07:39;;;;;;;;;;;;;;;;;;5050959;28;20042;-62
2023/09/01 08:10:05;;;;;;;;;;;;;;;;;;5031093;28;19932;-62
2023/09/01 08:12:31;;;;;;;;;;;;;;;;;;5051210;28;21256;-62
2023/09/01 08:14:57;;;;;;;;;;;;;;;;;;5048330;28;20042;-62
2023/09/01 08:17:23;;;;;;;;;;;;;;;;;;5048607;28;19920;-62
2023/09/01 08:19:49;;;;;;;;;;;;;;;;;;5033673;28;19924;-62
2023/09/01 08:22:15;;;;;;;;;;;;;;;;;;5052187;28;19921;-62
2023/09/01 08:24:41;;;;;;;;;;;;;;;;;;5050819;28;20317;-62
2023/09/01 08:27:06;;;;;;;;;;;;;;;;;;5032887;28;19921;-62
2023/09/01 08:29:32;;;;;;;;;;;;;;;;;;5050978;28;20424;-62
2023/09/01 08:32:00;;;;;;;;;;;;;;;;;;5032110;28;19935;-62
2023/09/01 08:34:26;;;;;;;;;;;;;;;;;;5050654;28;19924;-62
2023/09/01 08:36:52;;;;;;;;;;;;;;;;;;5051567;28;20412;-62
2023/09/01 08:39:18;;;;;;;;;;;;;;;;;;5051064;28;19921;-62
2023/09/01 08:41:44;;;;;;;;;;;;;;;;;;5042285;28;19932;-62
2023/09/01 08:44:10;;;;;;;;;;;;;;;;;;5057555;28;19928;-62
2023/09/01 08:46:36;;;;;;;;;;;;;;;;;;5049544;28;19925;-62
2023/09/01 08:49:02;;;;;;;;;;;;;;;;;;5051114;28;20852;-62
2023/09/01 08:51:28;;;;;;;;;;;;;;;;;;5042170;28;19924;-62
2023/09/01 08:53:54;;;;;;;;;;;;;;;;;;5051340;28;20277;-62
2023/09/01 08:56:20;;;;;;;;;;;;;;;;;;5049386;28;19925;-62
2023/09/01 08:58:46;;;;;;;;;;;;;;;;;;5016475;28;19921;-62
2023/09/01 09:01:13;;;;;;;;;;;;;;;;;;5050629;28;19928;-62
2023/09/01 09:03:39;;;;;;;;;;;;;;;;;;5049635;28;19921;-62
2023/09/01 09:06:05;;;;;;;;;;;;;;;;;;5050233;28;19948;-62
2023/09/01 09:08:32;;;;;;;;;;;;;;;;;;5015920;28;19924;-62
2023/09/01 09:10:58;;;;;;;;;;;;;;;;;;5046389;28;19940;-62
2023/09/01 09:13:24;;;;;;;;;;;;;;;;;;5031975;28;20389;-62
2023/09/01 09:15:50;;;;;;;;;;;;;;;;;;5047638;28;19937;-62
2023/09/01 09:18:15;;;;;;;;;;;;;;;;;;5051354;28;20019;-62
2023/09/01 09:20:41;;;;;;;;;;;;;;;;;;5053706;28;19932;-62
2023/09/01 09:23:07;;;;;;;;;;;;;;;;;;5089365;22;19931;-61
2023/09/01 09:25:34;;;;;;;;;;;;;;;;;;5079868;28;19934;-61
2023/09/01 09:28:00;;;;;;;;;;;;;;;;;;5076421;28;20407;-61
2023/09/01 09:30:26;;;;;;;;;;;;;;;;;;5071287;28;19920;-61
2023/09/01 09:32:52;;;;;;;;;;;;;;;;;;5083363;28;19928;-61
2023/09/01 09:35:24;;;;;;;;;;;;;;;;;;5057225;28;20013;-61
2023/09/01 09:37:50;;;;;;;;;;;;;;;;;;5057173;28;20581;-61
2023/09/01 09:40:16;;;;;;;;;;;;;;;;;;5081954;28;19927;-61
2023/09/01 09:42:42;;;;;;;;;;;;;;;;;;5081407;28;19968;-61
2023/09/01 09:45:08;;;;;;;;;;;;;;;;;;5074784;28;19943;-61
2023/09/01 09:47:33;;;;;;;;;;;;;;;;;;5075058;28;20370;-61
2023/09/01 09:49:59;;;;;;;;;;;;;;;;;;5074693;28;19927;-61
2023/09/01 09:52:25;;;;;;;;;;;;;;;;;;5075057;28;20492;-61
2023/09/01 09:54:51;;;;;;;;;;;;;;;;;;5056608;28;19920;-61
2023/09/01 09:57:17;;;;;;;;;;;;;;;;;;5080890;28;19931;-61
2023/09/01 09:59:44;;;;;;;;;;;;;;;;;;5090677;28;19920;-61
2023/09/01 10:02:10;;;;;;;;;;;;;;;;;;5074099;28;19967;-61
2023/09/01 10:04:36;;;;;;;;;;;;;;;;;;5074853;28;20314;-61
2023/09/01 10:07:02;;;;;;;;;;;;;;;;;;5056383;28;19931;-61
2023/09/01 10:09:28;;;;;;;;;;;;;;;;;;5073631;28;19920;-61
2023/09/01 10:11:54;;;;;;;;;;;;;;;;;;5073972;28;19928;-61
2023/09/01 10:14:23;;;;;;;;;;;;;;;;;;5074490;28;19920;-61
2023/09/01 10:16:48;;;;;;;;;;;;;;;;;;5069622;28;19925;-61
2023/09/01 10:19:14;;;;;;;;;;;;;;;;;;5052638;28;19929;-61
2023/09/01 10:21:40;;;;;;;;;;;;;;;;;;5055056;28;20625;-61
2023/09/01 10:24:06;;;;;;;;;;;;;;;;;;5068629;28;20320;-61
2023/09/01 10:26:32;;;;;;;;;;;;;;;;;;5072190;28;19928;-61
2023/09/01 10:28:59;;;;;;;;;;;;;;;;;;5053662;28;19927;-61
2023/09/01 10:31:25;;;;;;;;;;;;;;;;;;5060970;28;20061;-61
2023/09/01 10:33:51;;;;;;;;;;;;;;;;;;5060299;28;20015;-61
2023/09/01 10:36:18;;;;;;;;;;;;;;;;;;5073426;28;19927;-61
2023/09/01 10:38:43;;;;;;;;;;;;;;;;;;5073973;28;19978;-61
2023/09/01 10:41:10;;;;;;;;;;;;;;;;;;5074059;28;19963;-61
2023/09/01 10:43:41;;;;;;;;;;;;;;;;;;5074127;28;19920;-60
2023/09/01 10:46:07;;;;;;;;;;;;;;;;;;5074010;28;20015;-60
2023/09/01 10:48:33;;;;;;;;;;;;;;;;;;5073775;28;20050;-60
2023/09/01 10:50:59;;;;;;;;;;;;;;;;;;5072967;28;19931;-61
2023/09/01 10:53:25;;;;;;;;;;;;;;;;;;5041804;28;19928;-60
2023/09/01 10:55:50;;;;;;;;;;;;;;;;;;5065818;28;19920;-61
2023/09/01 10:58:16;;;;;;;;;;;;;;;;;;5050261;28;19933;-61
2023/09/01 11:00:42;;;;;;;;;;;;;;;;;;5067442;28;20344;-61
2023/09/01 11:03:08;;;;;;;;;;;;;;;;;;5064893;28;19920;-61
2023/09/01 11:05:34;;;;;;;;;;;;;;;;;;5068123;28;20278;-61
2023/09/01 11:08:00;;;;;;;;;;;;;;;;;;5065294;28;19929;-61
2023/09/01 11:10:26;;;;;;;;;;;;;;;;;;5059697;28;19921;-61
2023/09/01 11:12:52;;;;;;;;;;;;;;;;;;5052101;28;20449;-61
2023/09/01 11:15:18;;;;;;;;;;;;;;;;;;5053751;28;20459;-61
2023/09/01 11:17:45;;;;;;;;;;;;;;;;;;5062184;28;19951;-61
2023/09/01 11:20:10;;;;;;;;;;;;;;;;;;5072346;28;19974;-61
2023/09/01 11:22:36;;;;;;;;;;;;;;;;;;5072944;28;20411;-61
2023/09/01 11:25:03;;;;;;;;;;;;;;;;;;5073253;28;19959;-61
2023/09/01 11:27:28;;;;;;;;;;;;;;;;;;5070876;28;19928;-61
2023/09/01 11:29:54;;;;;;;;;;;;;;;;;;5073127;28;19924;-61
2023/09/01 11:32:20;;;;;;;;;;;;;;;;;;5072910;28;19994;-61
2023/09/01 11:34:49;;;;;;;;;;;;;;;;;;5055186;28;19924;-61
2023/09/01 11:37:15;;;;;;;;;;;;;;;;;;5073152;28;19989;-61
2023/09/01 11:39:41;;;;;;;;;;;;;;;;;;5079210;28;20354;-61
2023/09/01 11:42:07;;;;;;;;;;;;;;;;;;5089271;28;19977;-61
2023/09/01 11:44:33;;;;;;;;;;;;;;;;;;5072842;28;20269;-61
2023/09/01 11:46:59;;;;;;;;;;;;;;;;;;5072665;28;19963;-61
2023/09/01 11:49:24;;;;;;;;;;;;;;;;;;5072887;28;19993;-61
2023/09/01 11:51:50;;;;;;;;;;;;;;;;;;5071893;28;19936;-61
2023/09/01 11:54:16;;;;;;;;;;;;;;;;;;5057786;28;19969;-61
2023/09/01 11:56:43;;;;;;;;;;;;;;;;;;5072803;28;20288;-61
2023/09/01 11:59:09;;;;;;;;;;;;;;;;;;5072242;28;19920;-61
2023/09/01 12:01:35;;;;;;;;;;;;;;;;;;5071923;28;19924;-60
2023/09/01 12:04:01;;;;;;;;;;;;;;;;;;5070845;28;19944;-61
2023/09/01 12:06:27;;;;;;;;;;;;;;;;;;5054081;28;19920;-61
2023/09/01 12:08:53;;;;;;;;;;;;;;;;;;5072379;28;19925;-60
2023/09/01 12:11:19;;;;;;;;;;;;;;;;;;5070203;28;20389;-61
2023/09/01 12:13:45;;;;;;;;;;;;;;;;;;5076108;28;20020;-60
2023/09/01 12:16:11;;;;;;;;;;;;;;;;;;5088058;28;20270;-60
2023/09/01 12:18:38;;;;;;;;;;;;;;;;;;5069200;28;19931;-61
2023/09/01 12:21:04;;;;;;;;;;;;;;;;;;5070958;28;19966;-61
2023/09/01 12:23:30;;;;;;;;;;;;;;;;;;5071756;28;19924;-61
2023/09/01 12:25:56;;;;;;;;;;;;;;;;;;5072418;28;19931;-61
2023/09/01 12:28:22;;;;;;;;;;;;;;;;;;5071834;28;20014;-61
2023/09/01 12:30:48;;;;;;;;;;;;;;;;;;5072268;28;19921;-61
2023/09/01 12:33:14;;;;;;;;;;;;;;;;;;5071796;28;19929;-61
2023/09/01 12:35:40;;;;;;;;;;;;;;;;;;5072008;28;19927;-61
2023/09/01 12:38:06;;;;;;;;;;;;;;;;;;5071888;28;20015;-61
2023/09/01 12:40:32;;;;;;;;;;;;;;;;;;5067439;28;20021;-61
2023/09/01 12:42:57;;;;;;;;;;;;;;;;;;5050751;28;20597;-61
2023/09/01 12:45:23;;;;;;;;;;;;;;;;;;5051382;28;19924;-61
2023/09/01 12:47:49;;;;;;;;;;;;;;;;;;5051760;28;20351;-61
2023/09/01 12:50:15;;;;;;;;;;;;;;;;;;5054312;28;19924;-61
2023/09/01 12:52:41;;;;;;;;;;;;;;;;;;5071285;28;19928;-61
2023/09/01 12:55:07;;;;;;;;;;;;;;;;;;5071467;28;19947;-61
2023/09/01 12:57:33;;;;;;;;;;;;;;;;;;5071830;28;19920;-61
2023/09/01 12:59:59;;;;;;;;;;;;;;;;;;5071454;28;20024;-61
2023/09/01 13:02:25;;;;;;;;;;;;;;;;;;5057830;28;19931;-61
2023/09/01 13:04:50;;;;;;;;;;;;;;;;;;5053638;28;19921;-62
2023/09/01 13:07:16;;;;;;;;;;;;;;;;;;5071139;28;19920;-61
2023/09/01 13:09:42;;;;;;;;;;;;;;;;;;5071418;28;20025;-62
2023/09/01 13:12:08;;;;;;;;;;;;;;;;;;5071249;28;19935;-62
2023/09/01 13:14:34;;;;;;;;;;;;;;;;;;5071597;28;19920;-61
2023/09/01 13:17:00;;;;;;;;;;;;;;;;;;5069636;28;19920;-61
2023/09/01 13:19:26;;;;;;;;;;;;;;;;;;5051017;28;19927;-61
2023/09/01 13:21:52;;;;;;;;;;;;;;;;;;5069719;28;19936;-62
2023/09/01 13:24:18;;;;;;;;;;;;;;;;;;5069891;28;19920;-61
2023/09/01 13:26:43;;;;;;;;;;;;;;;;;;5070640;28;20381;-62
2023/09/01 13:29:09;;;;;;;;;;;;;;;;;;5070294;28;20385;-62
2023/09/01 13:31:35;;;;;;;;;;;;;;;;;;5070686;28;19932;-62
2023/09/01 13:34:02;;;;;;;;;;;;;;;;;;5070602;28;19928;-62
2023/09/01 13:36:27;;;;;;;;;;;;;;;;;;5070488;28;20008;-61
2023/09/01 13:38:53;;;;;;;;;;;;;;;;;;5048663;28;19964;-62
2023/09/01 13:41:19;;;;;;;;;;;;;;;;;;5054529;28;19967;-62
2023/09/01 13:43:45;;;;;;;;;;;;;;;;;;5060945;28;20339;-62
2023/09/01 13:46:11;;;;;;;;;;;;;;;;;;5070731;28;19928;-61
2023/09/01 13:48:37;;;;;;;;;;;;;;;;;;5065837;28;20607;-62
2023/09/01 13:51:03;;;;;;;;;;;;;;;;;;5050262;28;19924;-62
2023/09/01 13:53:29;;;;;;;;;;;;;;;;;;5063030;28;20059;-61
2023/09/01 13:55:54;;;;;;;;;;;;;;;;;;5040462;28;19921;-61
2023/09/01 13:58:20;;;;;;;;;;;;;;;;;;5087110;28;19921;-62
2023/09/01 14:00:46;;;;;;;;;;;;;;;;;;5052861;28;19925;-62
2023/09/01 14:03:12;;;;;;;;;;;;;;;;;;5071018;28;20071;-62
2023/09/01 14:05:38;;;;;;;;;;;;;;;;;;5073302;28;19924;-62
2023/09/01 14:08:04;;;;;;;;;;;;;;;;;;5074668;28;19927;-62
2023/09/01 14:10:30;;;;;;;;;;;;;;;;;;5074417;28;19928;-62
2023/09/01 14:12:56;;;;;;;;;;;;;;;;;;5074509;28;19931;-62
2023/09/01 14:15:22;;;;;;;;;;;;;;;;;;5073862;28;19948;-61
2023/09/01 14:17:47;;;;;;;;;;;;;;;;;;5073930;28;20015;-61
2023/09/01 14:20:13;;;;;;;;;;;;;;;;;;5072432;28;19981;-62
2023/09/01 14:22:39;;;;;;;;;;;;;;;;;;5064456;28;19931;-62
2023/09/01 14:25:05;;;;;;;;;;;;;;;;;;5052868;28;19932;-62
2023/09/01 14:27:31;;;;;;;;;;;;;;;;;;5067117;28;19979;-62
2023/09/01 14:29:57;;;;;;;;;;;;;;;;;;5063620;28;19925;-62
2023/09/01 14:32:23;;;;;;;;;;;;;;;;;;5066945;28;19929;-62
2023/09/01 14:34:49;;;;;;;;;;;;;;;;;;5067352;28;19920;-61
2023/09/01 14:37:15;;;;;;;;;;;;;;;;;;5067674;28;19920;-62
2023/09/01 14:39:40;;;;;;;;;;;;;;;;;;5073036;28;19963;-61
2023/09/01 14:42:06;;;;;;;;;;;;;;;;;;5059722;28;19925;-62
2023/09/01 14:44:32;;;;;;;;;;;;;;;;;;5072379;28;20058;-62
2023/09/01 14:46:58;;;;;;;;;;;;;;;;;;5072061;28;19928;-62
2023/09/01 14:49:24;;;;;;;;;;;;;;;;;;5071714;28;19973;-61
2023/09/01 14:51:50;;;;;;;;;;;;;;;;;;5072017;28;19929;-61
2023/09/01 14:54:16;;;;;;;;;;;;;;;;;;5072563;28;20015;-61
2023/09/01 14:56:42;;;;;;;;;;;;;;;;;;5072062;28;19928;-61
2023/09/01 14:59:07;;;;;;;;;;;;;;;;;;5072523;28;19924;-61
2023/09/01 15:01:33;;;;;;;;;;;;;;;;;;5053253;28;19924;-61
2023/09/01 15:03:59;;;;;;;;;;;;;;;;;;5066324;28;19967;-61
2023/09/01 15:06:25;;;;;;;;;;;;;;;;;;5067622;28;19960;-61
2023/09/01 15:08:51;;;;;;;;;;;;;;;;;;5069714;28;19925;-61
2023/09/01 15:11:17;;;;;;;;;;;;;;;;;;5062393;28;19948;-61
2023/09/01 15:13:43;;;;;;;;;;;;;;;;;;5046183;28;19970;-61
2023/09/01 15:16:09;;;;;;;;;;;;;;;;;;5071960;28;19920;-60
2023/09/01 15:18:35;;;;;;;;;;;;;;;;;;5071364;28;20015;-60
2023/09/01 15:21:01;;;;;;;;;;;;;;;;;;5071475;28;19925;-61
2023/09/01 15:23:27;;;;;;;;;;;;;;;;;;5071457;28;20309;-61
2023/09/01 15:25:52;;;;;;;;;;;;;;;;;;5073343;28;19932;-61
2023/09/01 15:28:18;;;;;;;;;;;;;;;;;;5072338;28;20038;-60
2023/09/01 15:30:44;;;;;;;;;;;;;;;;;;5053470;28;19930;-60
2023/09/01 15:33:10;;;;;;;;;;;;;;;;;;5071606;28;19924;-61
2023/09/01 15:35:36;;;;;;;;;;;;;;;;;;5071711;28;19921;-61
2023/09/01 15:38:02;;;;;;;;;;;;;;;;;;5053804;28;19935;-61
2023/09/01 15:40:28;;;;;;;;;;;;;;;;;;5071760;28;19975;-60
2023/09/01 15:42:55;;;;;;;;;;;;;;;;;;5054503;28;19963;-60
2023/09/01 15:45:21;;;;;;;;;;;;;;;;;;5072547;28;20045;-61
2023/09/01 15:47:47;;;;;;;;;;;;;;;;;;5042932;28;20015;-62
2023/09/01 15:50:12;;;;;;;;;;;;;;;;;;5067801;28;19928;-61
2023/09/01 15:52:38;;;;;;;;;;;;;;;;;;5071281;28;20023;-61
2023/09/01 15:55:04;;;;;;;;;;;;;;;;;;5066962;28;19920;-61
2023/09/01 15:57:30;;;;;;;;;;;;;;;;;;5051541;28;19924;-61
2023/09/01 15:59:56;;;;;;;;;;;;;;;;;;5070833;28;19956;-61
2023/09/01 16:02:22;;;;;;;;;;;;;;;;;;5071067;28;19924;-61
2023/09/01 16:04:48;;;;;;;;;;;;;;;;;;5065888;28;19924;-62
2023/09/01 16:07:14;;;;;;;;;;;;;;;;;;5071319;28;19932;-62
2023/09/01 16:09:40;;;;;;;;;;;;;;;;;;5070487;28;19940;-62
2023/09/01 16:12:06;;;;;;;;;;;;;;;;;;5052300;28;20015;-62
2023/09/01 16:14:32;;;;;;;;;;;;;;;;;;5059777;28;19936;-62
2023/09/01 16:16:59;;;;;;;;;;;;;;;;;;5057542;28;20011;-62
2023/09/01 16:19:25;;;;;;;;;;;;;;;;;;5064542;28;19927;-62
2023/09/01 16:21:50;;;;;;;;;;;;;;;;;;5065354;28;20282;-61
2023/09/01 16:24:16;;;;;;;;;;;;;;;;;;5067418;28;19989;-62
2023/09/01 16:26:42;;;;;;;;;;;;;;;;;;5072559;28;20362;-61
2023/09/01 16:29:08;;;;;;;;;;;;;;;;;;5066574;28;19947;-61
2023/09/01 16:31:37;;;;;;;;;;;;;;;;;;5070846;28;20352;-61
2023/09/01 16:34:03;;;;;;;;;;;;;;;;;;5046399;28;19951;-62
2023/09/01 16:36:29;;;;;;;;;;;;;;;;;;5054456;28;20361;-61